sensor_id;sensor_type;location;lat;lon;timestamp;pressure;altitude;pressure_sealevel;temperature;humidity
32638;BME280;19045;52.268;10.506;2023-03-26T00:00:37;99451.38;;;7.41;100.00
32638;BME280;19045;52.268;10.506;2023-03-26T00:03:06;99457.00;;;7.44;100.00
32638;BME280;19045;52.268;10.506;2023-03-26T00:05:34;99453.81;;;7.42;100.00
32638;BME280;19045;52.268;10.506;2023-03-26T00:08:01;99458.88;;;7.44;100.00
32638;BME280;19045;52.268;10.506;2023-03-26T00:10:28;99469.03;;;7.47;100.00
32638;BME280;19045;52.268;10.506;2023-03-26T00:12:57;99470.38;;;7.49;100.00
32638;BME280;19045;52.268;10.506;2023-03-26T00:15:24;99473.28;;;7.43;100.00
32638;BME280;19045;52.268;10.506;2023-03-26T00:17:50;99472.72;;;7.36;100.00
32638;BME280;19045;52.268;10.506;2023-03-26T00:20:19;99481.00;;;7.39;100.00
32638;BME280;19045;52.268;10.506;2023-03-26T00:22:46;99476.50;;;7.45;100.00
32638;BME280;19045;52.268;10.506;2023-03-26T00:25:13;99479.47;;;7.48;100.00
32638;BME280;19045;52.268;10.506;2023-03-26T00:27:40;99472.75;;;7.46;100.00
32638;BME280;19045;52.268;10.506;2023-03-26T00:30:10;99480.53;;;7.47;100.00
32638;BME280;19045;52.268;10.506;2023-03-26T00:32:37;99480.28;;;7.54;100.00
32638;BME280;19045;52.268;10.506;2023-03-26T00:35:04;99477.09;;;7.57;100.00
32638;BME280;19045;52.268;10.506;2023-03-26T00:37:32;99479.25;;;7.55;100.00
32638;BME280;19045;52.268;10.506;2023-03-26T00:39:59;99475.47;;;7.56;100.00
32638;BME280;19045;52.268;10.506;2023-03-26T00:42:34;99478.72;;;7.58;100.00
32638;BME280;19045;52.268;10.506;2023-03-26T00:45:00;99480.88;;;7.61;100.00
32638;BME280;19045;52.268;10.506;2023-03-26T00:47:28;99490.22;;;7.58;100.00
32638;BME280;19045;52.268;10.506;2023-03-26T00:49:55;99481.41;;;7.63;100.00
32638;BME280;19045;52.268;10.506;2023-03-26T00:52:22;99476.91;;;7.68;100.00
32638;BME280;19045;52.268;10.506;2023-03-26T00:54:51;99469.94;;;7.67;100.00
32638;BME280;19045;52.268;10.506;2023-03-26T00:57:18;99476.63;;;7.65;100.00
32638;BME280;19045;52.268;10.506;2023-03-26T00:59:46;99486.50;;;7.69;100.00
32638;BME280;19045;52.268;10.506;2023-03-26T01:02:17;99482.78;;;7.70;100.00
32638;BME280;19045;52.268;10.506;2023-03-26T01:04:46;99480.09;;;7.70;100.00
32638;BME280;19045;52.268;10.506;2023-03-26T01:07:15;99485.69;;;7.59;100.00
32638;BME280;19045;52.268;10.506;2023-03-26T01:09:47;99485.09;;;7.52;100.00
32638;BME280;19045;52.268;10.506;2023-03-26T01:12:19;99475.72;;;7.49;100.00
32638;BME280;19045;52.268;10.506;2023-03-26T01:14:48;99482.38;;;7.47;100.00
32638;BME280;19045;52.268;10.506;2023-03-26T01:17:16;99486.91;;;7.41;100.00
32638;BME280;19045;52.268;10.506;2023-03-26T01:19:47;99496.50;;;7.37;100.00
32638;BME280;19045;52.268;10.506;2023-03-26T01:22:18;99503.72;;;7.37;100.00
32638;BME280;19045;52.268;10.506;2023-03-26T01:24:48;99496.25;;;7.39;100.00
32638;BME280;19045;52.268;10.506;2023-03-26T01:27:24;99503.19;;;7.40;100.00
32638;BME280;19045;52.268;10.506;2023-03-26T01:29:54;99498.88;;;7.34;100.00
32638;BME280;19045;52.268;10.506;2023-03-26T01:32:35;99507.41;;;7.25;100.00
32638;BME280;19045;52.268;10.506;2023-03-26T01:35:18;99508.75;;;7.28;100.00
32638;BME280;19045;52.268;10.506;2023-03-26T01:37:54;99511.72;;;7.32;100.00
32638;BME280;19045;52.268;10.506;2023-03-26T01:40:33;99509.50;;;7.23;100.00
32638;BME280;19045;52.268;10.506;2023-03-26T01:43:08;99511.38;;;7.23;100.00
32638;BME280;19045;52.268;10.506;2023-03-26T01:45:38;99513.56;;;7.31;100.00
32638;BME280;19045;52.268;10.506;2023-03-26T01:48:07;99513.03;;;7.29;100.00
32638;BME280;19045;52.268;10.506;2023-03-26T01:50:34;99510.09;;;7.31;100.00
32638;BME280;19045;52.268;10.506;2023-03-26T01:53:00;99521.06;;;7.34;100.00
32638;BME280;19045;52.268;10.506;2023-03-26T01:55:35;99517.06;;;7.32;100.00
32638;BME280;19045;52.268;10.506;2023-03-26T01:58:13;99515.19;;;7.32;100.00
32638;BME280;19045;52.268;10.506;2023-03-26T02:00:48;99511.94;;;7.30;100.00
32638;BME280;19045;52.268;10.506;2023-03-26T02:03:24;99510.13;;;7.36;100.00
32638;BME280;19045;52.268;10.506;2023-03-26T02:05:56;99514.69;;;7.40;100.00
32638;BME280;19045;52.268;10.506;2023-03-26T02:08:28;99512.81;;;7.36;100.00
32638;BME280;19045;52.268;10.506;2023-03-26T02:11:02;99509.31;;;7.35;100.00
32638;BME280;19045;52.268;10.506;2023-03-26T02:13:34;99510.59;;;7.27;100.00
32638;BME280;19045;52.268;10.506;2023-03-26T02:16:04;99504.47;;;7.27;100.00
32638;BME280;19045;52.268;10.506;2023-03-26T02:18:32;99499.09;;;7.22;100.00
32638;BME280;19045;52.268;10.506;2023-03-26T02:21:05;99508.97;;;7.21;100.00
32638;BME280;19045;52.268;10.506;2023-03-26T02:23:35;99507.34;;;7.20;100.00
32638;BME280;19045;52.268;10.506;2023-03-26T02:26:04;99505.44;;;7.16;100.00
32638;BME280;19045;52.268;10.506;2023-03-26T02:28:31;99511.59;;;7.16;100.00
32638;BME280;19045;52.268;10.506;2023-03-26T02:30:58;99503.13;;;7.24;100.00
32638;BME280;19045;52.268;10.506;2023-03-26T02:33:26;99500.69;;;7.23;100.00
32638;BME280;19045;52.268;10.506;2023-03-26T02:35:53;99499.56;;;7.14;100.00
32638;BME280;19045;52.268;10.506;2023-03-26T02:38:21;99504.91;;;7.14;100.00
32638;BME280;19045;52.268;10.506;2023-03-26T02:40:49;99495.06;;;7.19;100.00
32638;BME280;19045;52.268;10.506;2023-03-26T02:43:17;99499.34;;;7.20;100.00
32638;BME280;19045;52.268;10.506;2023-03-26T02:45:44;99504.69;;;7.20;100.00
32638;BME280;19045;52.268;10.506;2023-03-26T02:48:11;99509.78;;;7.22;100.00
32638;BME280;19045;52.268;10.506;2023-03-26T02:50:37;99512.47;;;7.27;100.00
32638;BME280;19045;52.268;10.506;2023-03-26T02:53:04;99514.81;;;7.18;100.00
32638;BME280;19045;52.268;10.506;2023-03-26T02:55:30;99513.97;;;7.13;100.00
32638;BME280;19045;52.268;10.506;2023-03-26T02:57:57;99507.03;;;7.12;100.00
32638;BME280;19045;52.268;10.506;2023-03-26T03:00:25;99510.22;;;7.09;100.00
32638;BME280;19045;52.268;10.506;2023-03-26T03:02:54;99501.41;;;7.08;100.00
32638;BME280;19045;52.268;10.506;2023-03-26T03:05:22;99513.63;;;6.99;100.00
32638;BME280;19045;52.268;10.506;2023-03-26T03:07:50;99502.94;;;6.99;100.00
32638;BME280;19045;52.268;10.506;2023-03-26T03:10:17;99495.47;;;7.01;100.00
32638;BME280;19045;52.268;10.506;2023-03-26T03:12:46;99502.44;;;7.02;100.00
32638;BME280;19045;52.268;10.506;2023-03-26T03:15:13;99500.06;;;7.06;100.00
32638;BME280;19045;52.268;10.506;2023-03-26T03:17:41;99500.84;;;7.06;100.00
32638;BME280;19045;52.268;10.506;2023-03-26T03:20:07;99505.34;;;7.01;100.00
32638;BME280;19045;52.268;10.506;2023-03-26T03:22:35;99500.59;;;7.08;100.00
32638;BME280;19045;52.268;10.506;2023-03-26T03:25:02;99505.88;;;7.03;100.00
32638;BME280;19045;52.268;10.506;2023-03-26T03:27:29;99498.16;;;7.06;100.00
32638;BME280;19045;52.268;10.506;2023-03-26T03:29:56;99492.75;;;6.96;100.00
32638;BME280;19045;52.268;10.506;2023-03-26T03:32:26;99494.44;;;7.02;100.00
32638;BME280;19045;52.268;10.506;2023-03-26T03:34:54;99501.88;;;7.00;100.00
32638;BME280;19045;52.268;10.506;2023-03-26T03:37:20;99502.38;;;6.92;100.00
32638;BME280;19045;52.268;10.506;2023-03-26T03:39:47;99503.22;;;7.03;100.00
32638;BME280;19045;52.268;10.506;2023-03-26T03:42:14;99497.03;;;6.92;100.00
32638;BME280;19045;52.268;10.506;2023-03-26T03:44:41;99507.47;;;6.99;100.00
32638;BME280;19045;52.268;10.506;2023-03-26T03:47:07;99501.28;;;6.93;100.00
32638;BME280;19045;52.268;10.506;2023-03-26T03:49:37;99505.06;;;6.97;100.00
32638;BME280;19045;52.268;10.506;2023-03-26T03:52:06;99506.88;;;6.92;100.00
32638;BME280;19045;52.268;10.506;2023-03-26T03:54:33;99503.44;;;6.96;100.00
32638;BME280;19045;52.268;10.506;2023-03-26T03:56:59;99502.66;;;6.96;100.00
32638;BME280;19045;52.268;10.506;2023-03-26T03:59:27;99503.41;;;6.91;100.00
32638;BME280;19045;52.268;10.506;2023-03-26T04:01:54;99502.28;;;6.82;100.00
32638;BME280;19045;52.268;10.506;2023-03-26T04:04:23;99499.63;;;6.87;100.00
32638;BME280;19045;52.268;10.506;2023-03-26T04:06:50;99502.00;;;6.84;100.00
32638;BME280;19045;52.268;10.506;2023-03-26T04:09:18;99499.34;;;6.84;100.00
32638;BME280;19045;52.268;10.506;2023-03-26T04:11:45;99494.28;;;6.82;100.00
32638;BME280;19045;52.268;10.506;2023-03-26T04:14:11;99499.69;;;6.92;100.00
32638;BME280;19045;52.268;10.506;2023-03-26T04:16:38;99497.84;;;6.98;100.00
32638;BME280;19045;52.268;10.506;2023-03-26T04:19:04;99504.03;;;7.03;99.90
32638;BME280;19045;52.268;10.506;2023-03-26T04:21:32;99500.00;;;7.01;100.00
32638;BME280;19045;52.268;10.506;2023-03-26T04:24:02;99498.97;;;7.02;100.00
32638;BME280;19045;52.268;10.506;2023-03-26T04:26:30;99493.56;;;6.97;99.92
32638;BME280;19045;52.268;10.506;2023-03-26T04:28:58;99492.53;;;7.03;99.86
32638;BME280;19045;52.268;10.506;2023-03-26T04:31:27;99491.19;;;7.00;100.00
32638;BME280;19045;52.268;10.506;2023-03-26T04:33:55;99496.59;;;7.05;100.00
32638;BME280;19045;52.268;10.506;2023-03-26T04:36:26;99491.75;;;7.02;100.00
32638;BME280;19045;52.268;10.506;2023-03-26T04:38:54;99490.94;;;7.02;100.00
32638;BME280;19045;52.268;10.506;2023-03-26T04:41:22;99496.00;;;7.03;100.00
32638;BME280;19045;52.268;10.506;2023-03-26T04:43:52;99497.84;;;6.98;100.00
32638;BME280;19045;52.268;10.506;2023-03-26T04:46:18;99494.34;;;6.92;100.00
32638;BME280;19045;52.268;10.506;2023-03-26T04:48:46;99487.56;;;6.80;100.00
32638;BME280;19045;52.268;10.506;2023-03-26T04:51:13;99479.00;;;6.78;100.00
32638;BME280;19045;52.268;10.506;2023-03-26T04:53:43;99484.34;;;6.78;100.00
32638;BME280;19045;52.268;10.506;2023-03-26T04:56:14;99481.34;;;6.69;100.00
32638;BME280;19045;52.268;10.506;2023-03-26T04:58:47;99481.91;;;6.71;100.00
32638;BME280;19045;52.268;10.506;2023-03-26T05:01:16;99473.81;;;6.61;100.00
32638;BME280;19045;52.268;10.506;2023-03-26T05:03:42;99477.38;;;6.71;100.00
32638;BME280;19045;52.268;10.506;2023-03-26T05:06:10;99476.31;;;6.72;100.00
32638;BME280;19045;52.268;10.506;2023-03-26T05:08:37;99482.94;;;6.70;100.00
32638;BME280;19045;52.268;10.506;2023-03-26T05:11:08;99481.06;;;6.65;100.00
32638;BME280;19045;52.268;10.506;2023-03-26T05:13:35;99475.22;;;6.68;100.00
32638;BME280;19045;52.268;10.506;2023-03-26T05:16:02;99475.44;;;6.62;100.00
32638;BME280;19045;52.268;10.506;2023-03-26T05:18:33;99478.00;;;6.52;100.00
32638;BME280;19045;52.268;10.506;2023-03-26T05:20:59;99476.25;;;6.62;100.00
32638;BME280;19045;52.268;10.506;2023-03-26T05:23:26;99478.03;;;6.57;100.00
32638;BME280;19045;52.268;10.506;2023-03-26T05:25:52;99478.59;;;6.59;100.00
32638;BME280;19045;52.268;10.506;2023-03-26T05:28:19;99475.97;;;6.64;100.00
32638;BME280;19045;52.268;10.506;2023-03-26T05:30:48;99478.25;;;6.50;100.00
32638;BME280;19045;52.268;10.506;2023-03-26T05:33:17;99482.03;;;6.54;100.00
32638;BME280;19045;52.268;10.506;2023-03-26T05:35:45;99478.69;;;6.69;100.00
32638;BME280;19045;52.268;10.506;2023-03-26T05:38:13;99480.78;;;6.67;100.00
32638;BME280;19045;52.268;10.506;2023-03-26T05:40:40;99467.97;;;6.64;100.00
32638;BME280;19045;52.268;10.506;2023-03-26T05:43:06;99471.19;;;6.66;100.00
32638;BME280;19045;52.268;10.506;2023-03-26T05:45:33;99475.66;;;6.92;100.00
32638;BME280;19045;52.268;10.506;2023-03-26T05:47:59;99474.53;;;7.25;98.21
32638;BME280;19045;52.268;10.506;2023-03-26T05:50:26;99470.13;;;7.51;95.82
32638;BME280;19045;52.268;10.506;2023-03-26T05:52:54;99477.63;;;7.54;95.47
32638;BME280;19045;52.268;10.506;2023-03-26T05:55:20;99475.59;;;7.86;96.52
32638;BME280;19045;52.268;10.506;2023-03-26T05:57:47;99459.16;;;8.29;94.81
32638;BME280;19045;52.268;10.506;2023-03-26T06:00:14;99462.41;;;8.67;91.62
32638;BME280;19045;52.268;10.506;2023-03-26T06:02:41;99456.78;;;8.73;90.07
32638;BME280;19045;52.268;10.506;2023-03-26T06:05:07;99469.91;;;8.60;88.92
32638;BME280;19045;52.268;10.506;2023-03-26T06:07:36;99465.06;;;8.37;90.14
32638;BME280;19045;52.268;10.506;2023-03-26T06:10:05;99461.25;;;8.17;91.85
32638;BME280;19045;52.268;10.506;2023-03-26T06:12:33;99457.50;;;8.08;93.24
32638;BME280;19045;52.268;10.506;2023-03-26T06:15:01;99452.94;;;8.19;93.02
32638;BME280;19045;52.268;10.506;2023-03-26T06:17:27;99449.00;;;8.37;91.96
32638;BME280;19045;52.268;10.506;2023-03-26T06:19:54;99453.84;;;8.70;89.50
32638;BME280;19045;52.268;10.506;2023-03-26T06:22:23;99446.31;;;8.97;89.60
32638;BME280;19045;52.268;10.506;2023-03-26T06:24:50;99453.00;;;9.05;87.82
32638;BME280;19045;52.268;10.506;2023-03-26T06:27:18;99449.00;;;8.97;87.83
32638;BME280;19045;52.268;10.506;2023-03-26T06:29:46;99444.19;;;8.84;87.45
32638;BME280;19045;52.268;10.506;2023-03-26T06:32:13;99444.75;;;8.71;88.67
32638;BME280;19045;52.268;10.506;2023-03-26T06:34:40;99454.09;;;8.63;90.23
32638;BME280;19045;52.268;10.506;2023-03-26T06:37:07;99447.94;;;8.63;90.07
32638;BME280;19045;52.268;10.506;2023-03-26T06:39:33;99445.81;;;8.65;90.70
32638;BME280;19045;52.268;10.506;2023-03-26T06:42:02;99445.28;;;8.68;91.52
32638;BME280;19045;52.268;10.506;2023-03-26T06:44:30;99449.28;;;8.70;90.55
32638;BME280;19045;52.268;10.506;2023-03-26T06:46:56;99450.06;;;8.86;91.02
32638;BME280;19045;52.268;10.506;2023-03-26T06:49:23;99454.06;;;9.04;92.02
32638;BME280;19045;52.268;10.506;2023-03-26T06:51:50;99459.41;;;8.99;89.82
32638;BME280;19045;52.268;10.506;2023-03-26T06:54:16;99454.63;;;8.70;90.31
32638;BME280;19045;52.268;10.506;2023-03-26T06:56:43;99450.09;;;8.66;90.49
32638;BME280;19045;52.268;10.506;2023-03-26T06:59:10;99452.22;;;8.79;91.04
32638;BME280;19045;52.268;10.506;2023-03-26T07:01:38;99453.00;;;8.90;91.14
32638;BME280;19045;52.268;10.506;2023-03-26T07:04:04;99446.59;;;9.01;92.02
32638;BME280;19045;52.268;10.506;2023-03-26T07:06:31;99441.22;;;9.11;88.29
32638;BME280;19045;52.268;10.506;2023-03-26T07:08:57;99445.22;;;9.13;88.73
32638;BME280;19045;52.268;10.506;2023-03-26T07:11:24;99446.53;;;9.16;90.27
32638;BME280;19045;52.268;10.506;2023-03-26T07:13:51;99440.41;;;8.95;88.94
32638;BME280;19045;52.268;10.506;2023-03-26T07:16:17;99440.16;;;8.92;89.03
32638;BME280;19045;52.268;10.506;2023-03-26T07:18:45;99435.06;;;8.75;88.61
32638;BME280;19045;52.268;10.506;2023-03-26T07:21:13;99440.97;;;8.62;89.50
32638;BME280;19045;52.268;10.506;2023-03-26T07:23:40;99435.13;;;8.65;89.01
32638;BME280;19045;52.268;10.506;2023-03-26T07:26:18;99429.22;;;8.68;89.09
32638;BME280;19045;52.268;10.506;2023-03-26T07:28:55;99420.09;;;8.74;88.13
32638;BME280;19045;52.268;10.506;2023-03-26T07:31:29;99423.31;;;8.81;87.72
32638;BME280;19045;52.268;10.506;2023-03-26T07:34:07;99424.63;;;8.94;87.48
32638;BME280;19045;52.268;10.506;2023-03-26T07:36:42;99427.28;;;9.04;88.17
32638;BME280;19045;52.268;10.506;2023-03-26T07:39:25;99425.69;;;8.82;86.74
32638;BME280;19045;52.268;10.506;2023-03-26T07:42:05;99425.97;;;8.76;86.86
32638;BME280;19045;52.268;10.506;2023-03-26T07:44:49;99424.63;;;8.94;87.09
32638;BME280;19045;52.268;10.506;2023-03-26T07:47:22;99422.72;;;9.14;86.51
32638;BME280;19045;52.268;10.506;2023-03-26T07:49:53;99415.13;;;9.37;86.25
32638;BME280;19045;52.268;10.506;2023-03-26T07:52:22;99413.53;;;9.35;83.08
32638;BME280;19045;52.268;10.506;2023-03-26T07:54:49;99410.38;;;9.08;84.66
32638;BME280;19045;52.268;10.506;2023-03-26T07:57:30;99420.63;;;8.76;86.07
32638;BME280;19045;52.268;10.506;2023-03-26T08:00:03;99418.22;;;8.85;86.35
32638;BME280;19045;52.268;10.506;2023-03-26T08:02:46;99414.97;;;8.93;86.52
32638;BME280;19045;52.268;10.506;2023-03-26T08:05:23;99411.19;;;9.14;85.61
32638;BME280;19045;52.268;10.506;2023-03-26T08:08:05;99412.34;;;8.67;86.24
32638;BME280;19045;52.268;10.506;2023-03-26T08:10:39;99408.84;;;8.87;85.80
32638;BME280;19045;52.268;10.506;2023-03-26T08:13:18;99406.97;;;8.82;85.51
32638;BME280;19045;52.268;10.506;2023-03-26T08:15:51;99406.44;;;8.75;84.33
32638;BME280;19045;52.268;10.506;2023-03-26T08:18:33;99409.38;;;8.69;84.78
32638;BME280;19045;52.268;10.506;2023-03-26T08:21:09;99406.72;;;8.69;85.37
32638;BME280;19045;52.268;10.506;2023-03-26T08:23:45;99410.16;;;9.00;85.16
32638;BME280;19045;52.268;10.506;2023-03-26T08:26:16;99403.34;;;9.32;82.56
32638;BME280;19045;52.268;10.506;2023-03-26T08:28:54;99409.25;;;9.88;80.98
32638;BME280;19045;52.268;10.506;2023-03-26T08:31:29;99405.34;;;10.15;80.59
32638;BME280;19045;52.268;10.506;2023-03-26T08:33:58;99406.38;;;10.24;79.48
32638;BME280;19045;52.268;10.506;2023-03-26T08:36:26;99409.91;;;10.19;78.49
32638;BME280;19045;52.268;10.506;2023-03-26T08:38:53;99411.38;;;10.35;78.55
32638;BME280;19045;52.268;10.506;2023-03-26T08:41:50;99400.09;;;10.96;74.02
32638;BME280;19045;52.268;10.506;2023-03-26T08:50:56;99393.28;;;11.51;71.05
32638;BME280;19045;52.268;10.506;2023-03-26T08:53:40;99401.19;;;11.43;69.72
32638;BME280;19045;52.268;10.506;2023-03-26T08:56:18;99410.78;;;11.01;72.75
32638;BME280;19045;52.268;10.506;2023-03-26T08:59:04;99410.63;;;10.93;73.71
32638;BME280;19045;52.268;10.506;2023-03-26T09:01:45;99412.78;;;10.90;73.13
32638;BME280;19045;52.268;10.506;2023-03-26T09:07:43;99410.75;;;10.49;75.66
32638;BME280;19045;52.268;10.506;2023-03-26T09:10:49;99409.97;;;10.77;74.92
32638;BME280;19045;52.268;10.506;2023-03-26T09:13:44;99407.50;;;10.80;73.41
32638;BME280;19045;52.268;10.506;2023-03-26T09:16:44;99402.41;;;10.79;73.97
32638;BME280;19045;52.268;10.506;2023-03-26T09:22:57;99399.44;;;11.09;73.38
32638;BME280;19045;52.268;10.506;2023-03-26T09:26:01;99400.53;;;11.51;72.24
32638;BME280;19045;52.268;10.506;2023-03-26T09:32:23;99399.91;;;11.82;69.70
32638;BME280;19045;52.268;10.506;2023-03-26T09:35:11;99395.00;;;12.40;68.48
32638;BME280;19045;52.268;10.506;2023-03-26T09:37:49;99398.72;;;13.04;63.75
32638;BME280;19045;52.268;10.506;2023-03-26T09:40:27;99386.84;;;14.09;62.67
32638;BME280;19045;52.268;10.506;2023-03-26T09:46:12;99388.81;;;14.84;55.84
32638;BME280;19045;52.268;10.506;2023-03-26T09:49:09;99379.78;;;15.76;53.79
32638;BME280;19045;52.268;10.506;2023-03-26T09:51:57;99386.94;;;16.49;50.48
32638;BME280;19045;52.268;10.506;2023-03-26T09:54:45;99383.41;;;15.63;52.50
32638;BME280;19045;52.268;10.506;2023-03-26T09:57:28;99382.19;;;16.03;52.80
32638;BME280;19045;52.268;10.506;2023-03-26T10:00:18;99376.66;;;18.27;47.69
32638;BME280;19045;52.268;10.506;2023-03-26T10:03:10;99372.19;;;20.09;43.83
32638;BME280;19045;52.268;10.506;2023-03-26T10:05:47;99372.63;;;18.53;43.78
32638;BME280;19045;52.268;10.506;2023-03-26T10:08:52;99375.47;;;18.36;45.91
32638;BME280;19045;52.268;10.506;2023-03-26T10:11:34;99369.16;;;18.65;45.47
32638;BME280;19045;52.268;10.506;2023-03-26T10:14:12;99360.22;;;19.86;44.22
32638;BME280;19045;52.268;10.506;2023-03-26T10:16:53;99357.44;;;19.46;43.11
32638;BME280;19045;52.268;10.506;2023-03-26T10:19:41;99357.59;;;17.94;46.13
32638;BME280;19045;52.268;10.506;2023-03-26T10:22:24;99353.41;;;16.79;48.76
32638;BME280;19045;52.268;10.506;2023-03-26T10:25:15;99347.44;;;16.22;50.89
32638;BME280;19045;52.268;10.506;2023-03-26T10:27:51;99343.16;;;16.04;51.05
32638;BME280;19045;52.268;10.506;2023-03-26T10:30:46;99347.44;;;15.14;52.96
32638;BME280;19045;52.268;10.506;2023-03-26T10:33:27;99343.28;;;14.24;55.80
32638;BME280;19045;52.268;10.506;2023-03-26T10:36:10;99343.38;;;13.75;58.10
32638;BME280;19045;52.268;10.506;2023-03-26T10:38:52;99344.50;;;13.46;59.13
32638;BME280;19045;52.268;10.506;2023-03-26T10:41:27;99341.94;;;13.41;59.92
32638;BME280;19045;52.268;10.506;2023-03-26T10:47:31;99346.41;;;13.32;60.34
32638;BME280;19045;52.268;10.506;2023-03-26T10:50:30;99341.47;;;13.12;60.07
32638;BME280;19045;52.268;10.506;2023-03-26T10:53:00;99344.50;;;12.92;62.72
32638;BME280;19045;52.268;10.506;2023-03-26T10:55:34;99335.72;;;13.00;62.24
32638;BME280;19045;52.268;10.506;2023-03-26T10:58:08;99338.59;;;12.90;62.64
32638;BME280;19045;52.268;10.506;2023-03-26T11:00:42;99337.22;;;12.79;62.51
32638;BME280;19045;52.268;10.506;2023-03-26T11:03:28;99343.50;;;12.74;63.42
32638;BME280;19045;52.268;10.506;2023-03-26T11:06:07;99342.97;;;12.59;66.19
32638;BME280;19045;52.268;10.506;2023-03-26T11:08:39;99340.53;;;12.43;65.94
32638;BME280;19045;52.268;10.506;2023-03-26T11:11:16;99337.78;;;12.30;66.58
32638;BME280;19045;52.268;10.506;2023-03-26T11:13:54;99338.53;;;12.17;68.03
32638;BME280;19045;52.268;10.506;2023-03-26T11:16:32;99340.91;;;12.05;68.58
32638;BME280;19045;52.268;10.506;2023-03-26T11:19:03;99340.81;;;12.10;69.35
32638;BME280;19045;52.268;10.506;2023-03-26T11:21:42;99338.16;;;12.23;69.95
32638;BME280;19045;52.268;10.506;2023-03-26T11:24:35;99343.84;;;12.54;68.50
32638;BME280;19045;52.268;10.506;2023-03-26T11:27:08;99332.56;;;13.12;65.12
32638;BME280;19045;52.268;10.506;2023-03-26T11:29:47;99335.81;;;13.85;61.91
32638;BME280;19045;52.268;10.506;2023-03-26T11:32:19;99334.34;;;14.37;60.50
32638;BME280;19045;52.268;10.506;2023-03-26T11:34:55;99329.13;;;15.11;56.85
32638;BME280;19045;52.268;10.506;2023-03-26T11:37:31;99323.81;;;16.40;53.37
32638;BME280;19045;52.268;10.506;2023-03-26T11:40:00;99319.28;;;17.08;50.21
32638;BME280;19045;52.268;10.506;2023-03-26T11:42:29;99316.78;;;17.82;47.91
32638;BME280;19045;52.268;10.506;2023-03-26T11:44:57;99313.94;;;18.65;46.71
32638;BME280;19045;52.268;10.506;2023-03-26T11:47:31;99310.91;;;19.02;45.14
32638;BME280;19045;52.268;10.506;2023-03-26T11:50:02;99316.63;;;20.13;43.74
32638;BME280;19045;52.268;10.506;2023-03-26T11:52:32;99311.03;;;20.50;41.22
32638;BME280;19045;52.268;10.506;2023-03-26T11:54:59;99315.03;;;20.99;41.10
32638;BME280;19045;52.268;10.506;2023-03-26T11:57:28;99318.81;;;20.63;40.99
32638;BME280;19045;52.268;10.506;2023-03-26T12:00:00;99319.09;;;19.39;42.70
32638;BME280;19045;52.268;10.506;2023-03-26T12:02:37;99315.47;;;17.88;46.14
32638;BME280;19045;52.268;10.506;2023-03-26T12:05:20;99320.53;;;18.10;46.23
32638;BME280;19045;52.268;10.506;2023-03-26T12:07:52;99318.84;;;18.83;44.38
32638;BME280;19045;52.268;10.506;2023-03-26T12:10:29;99317.69;;;18.06;45.24
32638;BME280;19045;52.268;10.506;2023-03-26T12:12:59;99317.28;;;16.96;47.68
32638;BME280;19045;52.268;10.506;2023-03-26T12:15:27;99311.66;;;16.63;48.57
32638;BME280;19045;52.268;10.506;2023-03-26T12:17:57;99300.28;;;15.89;50.09
32638;BME280;19045;52.268;10.506;2023-03-26T12:20:34;99308.38;;;14.98;53.31
32638;BME280;19045;52.268;10.506;2023-03-26T12:23:05;99309.84;;;14.34;55.23
32638;BME280;19045;52.268;10.506;2023-03-26T12:25:33;99310.38;;;14.00;56.93
32638;BME280;19045;52.268;10.506;2023-03-26T12:28:03;99304.72;;;13.88;56.73
32638;BME280;19045;52.268;10.506;2023-03-26T12:30:33;99308.34;;;12.93;58.18
32638;BME280;19045;52.268;10.506;2023-03-26T12:33:04;99293.56;;;12.63;60.35
32638;BME280;19045;52.268;10.506;2023-03-26T12:35:33;99303.56;;;12.90;61.39
32638;BME280;19045;52.268;10.506;2023-03-26T12:38:20;99296.56;;;13.03;61.72
32638;BME280;19045;52.268;10.506;2023-03-26T12:40:48;99298.16;;;12.90;62.14
32638;BME280;19045;52.268;10.506;2023-03-26T12:43:22;99294.97;;;12.74;62.65
32638;BME280;19045;52.268;10.506;2023-03-26T12:45:53;99300.84;;;12.63;64.16
32638;BME280;19045;52.268;10.506;2023-03-26T12:48:23;99296.19;;;12.68;63.80
32638;BME280;19045;52.268;10.506;2023-03-26T12:51:02;99295.66;;;12.80;63.52
32638;BME280;19045;52.268;10.506;2023-03-26T12:53:45;99299.50;;;12.92;63.03
32638;BME280;19045;52.268;10.506;2023-03-26T12:56:18;99306.38;;;12.99;62.35
32638;BME280;19045;52.268;10.506;2023-03-26T13:01:52;99299.88;;;12.86;63.19
32638;BME280;19045;52.268;10.506;2023-03-26T13:04:39;99291.41;;;12.79;62.99
32638;BME280;19045;52.268;10.506;2023-03-26T13:07:15;99289.50;;;12.66;63.31
32638;BME280;19045;52.268;10.506;2023-03-26T13:12:45;99278.81;;;12.88;63.41
32638;BME280;19045;52.268;10.506;2023-03-26T13:15:21;99284.22;;;13.02;62.77
32638;BME280;19045;52.268;10.506;2023-03-26T13:17:58;99282.91;;;13.13;61.17
32638;BME280;19045;52.268;10.506;2023-03-26T13:20:33;99278.09;;;13.23;61.22
32638;BME280;19045;52.268;10.506;2023-03-26T13:23:09;99280.13;;;13.18;60.75
32638;BME280;19045;52.268;10.506;2023-03-26T13:25:45;99274.81;;;13.26;59.82
32638;BME280;19045;52.268;10.506;2023-03-26T13:28:24;99275.19;;;13.33;59.72
32638;BME280;19045;52.268;10.506;2023-03-26T13:31:01;99272.03;;;13.54;59.20
32638;BME280;19045;52.268;10.506;2023-03-26T13:33:39;99272.69;;;13.73;58.44
32638;BME280;19045;52.268;10.506;2023-03-26T13:36:15;99268.66;;;13.84;57.44
32638;BME280;19045;52.268;10.506;2023-03-26T13:38:52;99264.72;;;13.68;58.03
32638;BME280;19045;52.268;10.506;2023-03-26T13:41:32;99256.94;;;13.53;57.68
32638;BME280;19045;52.268;10.506;2023-03-26T13:44:09;99260.19;;;13.41;58.03
32638;BME280;19045;52.268;10.506;2023-03-26T13:46:43;99261.28;;;13.40;58.93
32638;BME280;19045;52.268;10.506;2023-03-26T13:49:13;99255.63;;;13.28;59.45